William Tyndale — WBG7411 — position and weather

sailwx.info

Track history (hours):
 
Tides and Currents Weather Stations Pressure Air Temp Water Temp Dewpoint Dewpoint Depression Visibility Wind Speed Wind Dir Waves Ship Positions

William Tyndale

Last reported at 2017-Dec-20 18:34 UTC. Time now 2018-Jan-21 16:33 UTC.
Position N 47°17' W 122°25'.
Warning: this ship's position is 31 days out of date.

Date/timePositionNaut miles runAvg speedWind from/ knotsBaromVisibWave heightAir tempDewpointWater temp
2017-Dec-20 18:34N 47°17' W 122°25'0 6.5
2017-Dec-20 18:31N 47°17' W 122°25'1 0.9
2017-Dec-20 17:54N 47°16' W 122°24'1 0.0
2017-Dec-19 19:55N 47°17' W 122°25'1 2.2
2017-Dec-19 19:30N 47°16' W 122°24'  
2017-Dec-16 04:58N 47°17' W 122°25'2 3.8
2017-Dec-16 04:30N 47°16' W 122°26'2 3.6
2017-Dec-16 04:00N 47°18' W 122°26'1 0.0
2017-Dec-15 02:17N 47°17' W 122°25'5 4.1
2017-Dec-15 01:00N 47°17' W 122°32'2 0.3
2017-Dec-14 18:15N 47°15' W 122°34'2 7.3
2017-Dec-14 17:56N 47°17' W 122°32'2 5.0
2017-Dec-14 17:30N 47°19' W 122°32'3 6.1
2017-Dec-14 17:00N 47°18' W 122°28'2 0.1
2017-Dec-13 05:31N 47°17' W 122°25'0 7.5
2017-Dec-13 05:30N 47°17' W 122°25'3 5.4
2017-Dec-13 05:00N 47°18' W 122°29'2 4.8
2017-Dec-13 04:30N 47°19' W 122°32'3 5.1
2017-Dec-13 03:56N 47°16' W 122°33'5 1.7
2017-Dec-13 00:42N 47°12' W 122°38'10 5.4
2017-Dec-12 22:53N 47°10' W 122°52'3 6.3
2017-Dec-12 22:29N 47°09' W 122°55'2 4.9
2017-Dec-12 21:58N 47°07' W 122°57'0 0.2
2017-Dec-12 20:50N 47°07' W 122°56'0 0.1
2017-Dec-12 20:20N 47°07' W 122°56'0 0.1
2017-Dec-12 19:54N 47°07' W 122°56'0 0.0
2017-Dec-12 19:24N 47°07' W 122°56'0 0.0
2017-Dec-12 18:55N 47°07' W 122°56'1 3.2
2017-Dec-12 18:30N 47°08' W 122°56'3 6.2
2017-Dec-12 18:00N 47°10' W 122°53'9 5.8
2017-Dec-12 16:25N 47°11' W 122°39'3 6.4
2017-Dec-12 15:55N 47°13' W 122°35'3 6.7
2017-Dec-12 15:27N 47°16' W 122°33'3 6.4
2017-Dec-12 15:00N 47°19' W 122°33'3 5.5
2017-Dec-12 14:30N 47°18' W 122°29'4 0.2
2017-Dec-11 22:12N 47°17' W 122°24'1 5.3
2017-Dec-11 22:00N 47°17' W 122°25'3 6.0
2017-Dec-11 21:30N 47°19' W 122°29'3 5.6
2017-Dec-11 21:00N 47°20' W 122°33'3 5.8
2017-Dec-11 20:31N 47°23' W 122°32'3 5.9
2017-Dec-11 20:00N 47°26' W 122°31'1 2.1
2017-Dec-11 19:30N 47°27' W 122°31'0 0.2
2017-Dec-11 19:00N 47°27' W 122°31'0 0.0
2017-Dec-11 18:30N 47°27' W 122°31'0 0.0
2017-Dec-11 18:00N 47°27' W 122°31'0 0.0
2017-Dec-11 17:29N 47°27' W 122°31'0 0.2
2017-Dec-11 17:01N 47°27' W 122°31'2 4.8
2017-Dec-11 16:30N 47°25' W 122°31'3 5.7
2017-Dec-11 16:00N 47°22' W 122°32'3 5.8
2017-Dec-11 15:30N 47°19' W 122°30'3 6.1
2017-Dec-11 15:00N 47°17' W 122°27'  
Track history (hours):
 
Tides and Currents Weather Stations Pressure Air Temp Water Temp Dewpoint Dewpoint Depression Visibility Wind Speed Wind Dir Waves Ship Positions

William Tyndale

Last reported at 2017-Dec-20 18:34 UTC. Time now 2018-Jan-21 16:33 UTC.
Position N 47°17' W 122°25'.
Warning: this ship's position is 31 days out of date.

Date/timePositionNaut miles runAvg speedWind from/ knotsBaromVisibWave heightAir tempDewpointWater temp
2017-Dec-20 18:34N 47°17' W 122°25'0 6.5
2017-Dec-20 18:31N 47°17' W 122°25'1 0.9
2017-Dec-20 17:54N 47°16' W 122°24'1 0.0
2017-Dec-19 19:55N 47°17' W 122°25'1 2.2
2017-Dec-19 19:30N 47°16' W 122°24'  
2017-Dec-16 04:58N 47°17' W 122°25'2 3.8
2017-Dec-16 04:30N 47°16' W 122°26'2 3.6
2017-Dec-16 04:00N 47°18' W 122°26'1 0.0
2017-Dec-15 02:17N 47°17' W 122°25'5 4.1
2017-Dec-15 01:00N 47°17' W 122°32'2 0.3
2017-Dec-14 18:15N 47°15' W 122°34'2 7.3
2017-Dec-14 17:56N 47°17' W 122°32'2 5.0
2017-Dec-14 17:30N 47°19' W 122°32'3 6.1
2017-Dec-14 17:00N 47°18' W 122°28'2 0.1
2017-Dec-13 05:31N 47°17' W 122°25'0 7.5
2017-Dec-13 05:30N 47°17' W 122°25'3 5.4
2017-Dec-13 05:00N 47°18' W 122°29'2 4.8
2017-Dec-13 04:30N 47°19' W 122°32'3 5.1
2017-Dec-13 03:56N 47°16' W 122°33'5 1.7
2017-Dec-13 00:42N 47°12' W 122°38'10 5.4
2017-Dec-12 22:53N 47°10' W 122°52'3 6.3
2017-Dec-12 22:29N 47°09' W 122°55'2 4.9
2017-Dec-12 21:58N 47°07' W 122°57'0 0.2
2017-Dec-12 20:50N 47°07' W 122°56'0 0.1
2017-Dec-12 20:20N 47°07' W 122°56'0 0.1
2017-Dec-12 19:54N 47°07' W 122°56'0 0.0
2017-Dec-12 19:24N 47°07' W 122°56'0 0.0
2017-Dec-12 18:55N 47°07' W 122°56'1 3.2
2017-Dec-12 18:30N 47°08' W 122°56'3 6.2
2017-Dec-12 18:00N 47°10' W 122°53'9 5.8
2017-Dec-12 16:25N 47°11' W 122°39'3 6.4
2017-Dec-12 15:55N 47°13' W 122°35'3 6.7
2017-Dec-12 15:27N 47°16' W 122°33'3 6.4
2017-Dec-12 15:00N 47°19' W 122°33'3 5.5
2017-Dec-12 14:30N 47°18' W 122°29'4 0.2
2017-Dec-11 22:12N 47°17' W 122°24'1 5.3
2017-Dec-11 22:00N 47°17' W 122°25'3 6.0
2017-Dec-11 21:30N 47°19' W 122°29'3 5.6
2017-Dec-11 21:00N 47°20' W 122°33'3 5.8
2017-Dec-11 20:31N 47°23' W 122°32'3 5.9
2017-Dec-11 20:00N 47°26' W 122°31'1 2.1
2017-Dec-11 19:30N 47°27' W 122°31'0 0.2
2017-Dec-11 19:00N 47°27' W 122°31'0 0.0
2017-Dec-11 18:30N 47°27' W 122°31'0 0.0
2017-Dec-11 18:00N 47°27' W 122°31'0 0.0
2017-Dec-11 17:29N 47°27' W 122°31'0 0.2
2017-Dec-11 17:01N 47°27' W 122°31'2 4.8
2017-Dec-11 16:30N 47°25' W 122°31'3 5.7
2017-Dec-11 16:00N 47°22' W 122°32'3 5.8
2017-Dec-11 15:30N 47°19' W 122°30'3 6.1
2017-Dec-11 15:00N 47°17' W 122°27'  

Dump ship's entire track history